»·PEaware :: N221XG KGUC-KASE

N221XG :: KGUC-KASE

FLIGHT INFORMATION

Flight Status: Arrived
Operator: Privately registered:
United States
More flights under this callsign
Pilot: Ryan L. (9775)
Aircraft: BEECH AIRCRAFT SUPER KING AIR 350
(B350)
More flights by this aircraft type
Origin: KGUC Gunnison Co
United States
Destination: KASE Aspen-Pitkin Co/Sardy
United States
More flights between these airports :: More routes between these airports
Route: HBU DBL
File this flight plan on PilotEdge
Remarks:
Altitude:
(Current/Filed)
20,000ft
Speed:
(Current/Filed)
450kts
Departed: 22-Nov-19 08:15 PM
Arrived: 22-Nov-19 08:49 PM
Distance/Time
Traveled:
42nm/0:33
Distance/Time
To Go:
Arrived

Flight Plot

Page will automatically refresh every two minutes.

Flight plan parsing failed; only flown route is shown


Map Options




Map Legend


Flown Route
Filed Route
Departure Airport
Arrival Airport
Navaid (VOR, NDB)
Fix

Horizontal Profiles

Position Reports

Time Latitude Longitude Heading Altitude Ground
Speed
22-Nov-19 19:56 38.535081 -106.941271 253 7683ft 0kts
22-Nov-19 19:57 38.535081 -106.941271 253 7683ft 0kts
22-Nov-19 19:59 38.535081 -106.941271 253 7683ft 0kts
22-Nov-19 20:00 38.535081 -106.941271 253 7683ft 0kts
22-Nov-19 20:01 38.535081 -106.941271 253 7683ft 0kts
22-Nov-19 20:02 38.535081 -106.941271 253 7683ft 0kts
22-Nov-19 20:03 38.535081 -106.941271 253 7683ft 0kts
22-Nov-19 20:04 38.535081 -106.941271 253 7683ft 0kts
22-Nov-19 20:05 38.535081 -106.941271 253 7683ft 0kts
22-Nov-19 20:06 38.534820 -106.940436 89 7683ft 10kts
22-Nov-19 20:07 38.535896 -106.935028 73 7683ft 19kts
22-Nov-19 20:08 38.537594 -106.927711 74 7683ft 22kts
22-Nov-19 20:09 38.539407 -106.919880 73 7683ft 23kts
22-Nov-19 20:10 38.540600 -106.914203 118 7683ft 0kts
22-Nov-19 20:11 38.540600 -106.914203 118 7683ft 0kts
22-Nov-19 20:12 38.540600 -106.914203 118 7683ft 0kts
22-Nov-19 20:13 38.540359 -106.913962 158 7683ft 8kts
22-Nov-19 20:14 38.539618 -106.914027 252 7683ft 0kts
22-Nov-19 20:15 38.536475 -106.927546 253 7722ft 134kts
22-Nov-19 20:16 38.524718 -106.981104 261 9348ft 173kts
22-Nov-19 20:17 38.487793 -107.005679 148 11195ft 189kts
22-Nov-19 20:18 38.493722 -106.955324 19 13141ft 172kts
22-Nov-19 20:19 38.535732 -106.925082 36 15020ft 181kts
22-Nov-19 20:19 38.571430 -106.911195 320 16600ft 185kts
22-Nov-19 20:21 38.541097 -106.972589 213 18522ft 225kts
22-Nov-19 20:22 38.486140 -107.014330 212 20035ft 244kts
22-Nov-19 20:22 38.447909 -107.069482 273 20268ft 273kts
22-Nov-19 20:24 38.511364 -107.108025 38 20246ft 279kts
22-Nov-19 20:24 38.559324 -107.049646 41 20242ft 291kts
22-Nov-19 20:25 38.621652 -106.981408 18 20218ft 296kts
22-Nov-19 20:27 38.716592 -106.993115 1 20237ft 298kts
22-Nov-19 20:27 38.785767 -106.987361 5 20236ft 299kts
22-Nov-19 20:28 38.868709 -106.975627 6 19981ft 297kts
22-Nov-19 20:29 38.950299 -106.963196 7 18458ft 292kts
22-Nov-19 20:30 39.029221 -106.951042 7 17223ft 274kts
22-Nov-19 20:32 39.113176 -106.938500 0 17069ft 250kts
22-Nov-19 20:32 39.163307 -106.974594 328 17089ft 254kts
22-Nov-19 20:33 39.224487 -107.027941 328 15693ft 274kts
22-Nov-19 20:34 39.290769 -107.074651 342 15081ft 266kts
22-Nov-19 20:35 39.360029 -107.105955 342 15072ft 261kts
22-Nov-19 20:36 39.430383 -107.129372 13 13775ft 266kts
22-Nov-19 20:37 39.466928 -107.056868 68 13043ft 222kts
22-Nov-19 20:38 39.445090 -106.989017 126 13073ft 213kts
22-Nov-19 20:39 39.395996 -106.951582 159 12964ft 213kts
22-Nov-19 20:40 39.345198 -106.927220 160 12636ft 189kts
22-Nov-19 20:41 39.297742 -106.904493 161 11469ft 163kts
22-Nov-19 20:42 39.262097 -106.884137 143 9842ft 132kts
22-Nov-19 20:43 39.233496 -106.857572 148 8866ft 125kts
22-Nov-19 20:44 39.204127 -106.839322 211 8471ft 125kts
22-Nov-19 20:45 39.218302 -106.858004 6 8588ft 120kts
22-Nov-19 20:46 39.252355 -106.860545 344 8612ft 128kts
22-Nov-19 20:47 39.243764 -106.879023 163 8112ft 124kts
22-Nov-19 20:48 39.220550 -106.867574 146 7823ft 12kts
22-Nov-19 20:49 39.220737 -106.866518 344 7823ft 5kts
22-Nov-19 20:50 39.223489 -106.867738 0 7823ft 6kts
22-Nov-19 20:51 39.223863 -106.867409 152 7823ft 0kts
22-Nov-19 20:52 39.223863 -106.867409 152 7823ft 0kts
22-Nov-19 20:53 39.223863 -106.867409 152 7823ft 0kts
22-Nov-19 20:54 39.223863 -106.867409 152 7823ft 0kts

Navigation Log

Ident Type
Flight plan parsing failed, navigation log unavailable